Time;durP1;ratioP1;P1;durP2;ratioP2;P2;SDS_P1;SDS_P2;PMS_P1;PMS_P2;Temp;Humidity;BMP_temperature;BMP_pressure;BME280_temperature;BME280_humidity;BME280_pressure;Samples;Min_cycle;Max_cycle;Signal;HPM_P1;HPM_P2
2022/09/24 00:00:52;;;;;;;6.78;4.13;;;;;;;;;;5059338;28;20016;-83
2022/09/24 00:03:18;;;;;;;6.35;3.95;;;;;;;;;;5053821;28;20017;-84
2022/09/24 00:05:45;;;;;;;6.55;4.30;;;;;;;;;;5053763;28;20074;-84
2022/09/24 00:08:12;;;;;;;9.60;4.60;;;;;;;;;;5055269;28;20033;-83
2022/09/24 00:10:39;;;;;;;6.05;4.15;;;;;;;;;;5056249;28;20070;-84
2022/09/24 00:13:08;;;;;;;6.72;4.13;;;;;;;;;;5033334;28;20052;-83
2022/09/24 00:15:38;;;;;;;6.57;4.40;;;;;;;;;;5015187;28;20479;-83
2022/09/24 00:18:06;;;;;;;8.55;4.97;;;;;;;;;;5032759;28;20477;-83
2022/09/24 00:20:32;;;;;;;6.85;4.72;;;;;;;;;;5032531;28;20112;-83
2022/09/24 00:22:59;;;;;;;9.00;4.50;;;;;;;;;;5032573;28;20034;-84
2022/09/24 00:28:08;;;;;;;5.50;4.03;;;;;;;;;;5034443;28;20430;-85
2022/09/24 00:30:33;;;;;;;7.47;4.60;;;;;;;;;;5051205;28;20464;-84
2022/09/24 00:32:59;;;;;;;5.78;4.28;;;;;;;;;;5061681;28;20466;-84
2022/09/24 00:35:24;;;;;;;8.90;4.65;;;;;;;;;;5068731;28;20485;-83
2022/09/24 00:37:50;;;;;;;10.48;4.82;;;;;;;;;;5059735;28;20021;-84
2022/09/24 00:40:15;;;;;;;5.47;4.22;;;;;;;;;;5066091;28;20529;-82
2022/09/24 00:42:41;;;;;;;6.03;4.28;;;;;;;;;;5073746;28;20031;-83
2022/09/24 00:45:08;;;;;;;4.85;3.72;;;;;;;;;;5073329;28;20046;-83
2022/09/24 00:47:38;;;;;;;10.40;4.70;;;;;;;;;;5073558;28;20409;-83
2022/09/24 00:50:16;;;;;;;6.20;4.50;;;;;;;;;;5073127;28;20028;-82
2022/09/24 00:52:49;;;;;;;8.27;4.45;;;;;;;;;;5059883;28;20017;-84
2022/09/24 00:55:17;;;;;;;6.72;4.80;;;;;;;;;;5060587;28;20471;-84
2022/09/24 00:57:43;;;;;;;5.85;3.95;;;;;;;;;;5044006;28;20028;-84
2022/09/24 01:00:10;;;;;;;7.18;4.47;;;;;;;;;;5049278;28;20032;-84
2022/09/24 01:02:38;;;;;;;9.05;4.68;;;;;;;;;;5054179;28;20016;-84
2022/09/24 01:05:03;;;;;;;9.15;4.82;;;;;;;;;;5066790;28;20031;-83
2022/09/24 01:07:29;;;;;;;6.40;4.85;;;;;;;;;;5075971;28;20028;-84
2022/09/24 01:09:55;;;;;;;10.40;5.63;;;;;;;;;;5059853;28;20061;-84
2022/09/24 01:12:27;;;;;;;9.32;5.43;;;;;;;;;;5053096;28;20017;-82
2022/09/24 01:15:07;;;;;;;;;;;;;;;;;;5053684;28;20020;-84
2022/09/24 01:17:43;;;;;;;9.13;4.70;;;;;;;;;;5051468;28;20286;-83
2022/09/24 01:20:33;;;;;;;7.85;5.22;;;;;;;;;;5051131;28;20036;-84
2022/09/24 01:23:20;;;;;;;6.68;4.45;;;;;;;;;;5053287;28;20051;-84
2022/09/24 01:26:18;;;;;;;8.70;5.35;;;;;;;;;;5041441;28;20079;-84
2022/09/24 01:28:54;;;;;;;10.88;5.25;;;;;;;;;;5038374;28;20030;-83
2022/09/24 01:31:34;;;;;;;8.60;5.13;;;;;;;;;;5064273;28;20147;-83
2022/09/24 01:34:04;;;;;;;5.13;4.35;;;;;;;;;;5056129;28;20410;-82
2022/09/24 01:36:32;;;;;;;8.20;4.88;;;;;;;;;;5056304;28;20021;-84
2022/09/24 01:38:59;;;;;;;10.40;5.20;;;;;;;;;;5058094;28;20391;-83
2022/09/24 01:41:25;;;;;;;8.35;5.07;;;;;;;;;;5060372;28;20013;-84
2022/09/24 01:43:51;;;;;;;7.45;4.80;;;;;;;;;;5056127;28;20176;-83
2022/09/24 01:46:18;;;;;;;11.07;5.28;;;;;;;;;;5055596;28;20029;-82
2022/09/24 01:48:44;;;;;;;7.93;4.95;;;;;;;;;;5054982;28;20532;-87
2022/09/24 01:51:26;;;;;;;8.48;4.75;;;;;;;;;;5054080;28;20273;-86
2022/09/24 01:54:08;;;;;;;17.92;4.88;;;;;;;;;;5026551;28;20016;-86
2022/09/24 01:56:37;;;;;;;6.80;4.57;;;;;;;;;;5037399;28;20029;-87
2022/09/24 01:59:13;;;;;;;8.65;5.25;;;;;;;;;;5051021;28;20021;-86
2022/09/24 02:01:55;;;;;;;6.53;4.82;;;;;;;;;;5057780;28;20028;-86
2022/09/24 02:04:23;;;;;;;9.60;5.22;;;;;;;;;;5049173;28;20689;-88
2022/09/24 02:07:00;;;;;;;10.02;5.25;;;;;;;;;;5055672;28;20116;-87
2022/09/24 02:09:28;;;;;;;10.93;5.10;;;;;;;;;;5056263;28;20021;-87
2022/09/24 02:11:55;;;;;;;8.23;5.47;;;;;;;;;;5037218;28;20059;-86
2022/09/24 02:14:21;;;;;;;8.63;5.70;;;;;;;;;;5056172;28;20033;-87
2022/09/24 02:16:47;;;;;;;8.40;5.50;;;;;;;;;;5037418;28;20025;-87
2022/09/24 02:19:17;;;;;;;9.63;5.22;;;;;;;;;;5055701;28;20025;-88
2022/09/24 02:21:44;;;;;;;9.82;5.40;;;;;;;;;;5055007;28;20474;-87
2022/09/24 02:24:18;;;;;;;9.48;6.03;;;;;;;;;;5055687;28;20035;-85
2022/09/24 02:26:44;;;;;;;11.13;5.22;;;;;;;;;;5055796;28;20663;-89
2022/09/24 02:29:11;;;;;;;9.55;5.95;;;;;;;;;;5055721;28;20103;-88
2022/09/24 02:31:41;;;;;;;9.68;6.10;;;;;;;;;;5058965;28;20052;-86
2022/09/24 02:34:19;;;;;;;8.80;5.78;;;;;;;;;;5032616;28;20127;-88
2022/09/24 02:36:54;;;;;;;15.18;5.70;;;;;;;;;;5026835;28;20021;-87
2022/09/24 02:39:20;;;;;;;9.52;5.47;;;;;;;;;;5054891;28;20081;-88
2022/09/24 02:41:48;;;;;;;11.68;6.25;;;;;;;;;;5036522;28;20048;-87
2022/09/24 02:44:15;;;;;;;9.80;5.97;;;;;;;;;;5037824;28;20056;-86
2022/09/24 02:46:41;;;;;;;11.25;5.65;;;;;;;;;;5054836;28;20048;-88
2022/09/24 02:49:08;;;;;;;8.90;5.90;;;;;;;;;;5054999;28;20033;-88
2022/09/24 02:51:33;;;;;;;9.95;5.68;;;;;;;;;;5044476;28;20071;-87
2022/09/24 02:54:00;;;;;;;9.70;5.80;;;;;;;;;;5055367;28;20414;-88
2022/09/24 02:56:26;;;;;;;8.23;5.55;;;;;;;;;;5037644;28;20044;-85
2022/09/24 02:58:52;;;;;;;9.15;6.35;;;;;;;;;;5055427;28;20033;-87
2022/09/24 03:01:18;;;;;;;9.65;5.57;;;;;;;;;;5061267;28;20415;-88
2022/09/24 03:03:44;;;;;;;8.95;5.18;;;;;;;;;;5054947;28;20100;-87
2022/09/24 03:06:11;;;;;;;9.25;5.80;;;;;;;;;;5055114;28;20048;-88
2022/09/24 03:08:37;;;;;;;10.40;5.95;;;;;;;;;;5056148;28;20044;-88
2022/09/24 03:11:03;;;;;;;10.63;6.25;;;;;;;;;;5044526;28;20450;-90
2022/09/24 03:13:28;;;;;;;8.00;6.07;;;;;;;;;;5055861;28;20074;-88
2022/09/24 03:15:53;;;;;;;9.07;6.03;;;;;;;;;;5055424;28;20036;-87
2022/09/24 03:18:19;;;;;;;11.15;7.20;;;;;;;;;;5055938;28;20437;-86
2022/09/24 03:20:53;;;;;;;12.70;6.47;;;;;;;;;;5054647;28;20596;-86
2022/09/24 03:23:19;;;;;;;9.57;6.25;;;;;;;;;;5037686;28;20056;-88
2022/09/24 03:25:44;;;;;;;8.98;6.57;;;;;;;;;;5055828;28;20029;-87
2022/09/24 03:28:09;;;;;;;16.08;7.68;;;;;;;;;;5054674;28;20020;-86
2022/09/24 03:33:19;;;;;;;9.20;6.47;;;;;;;;;;5059343;28;20052;-87
2022/09/24 03:35:44;;;;;;;14.23;8.02;;;;;;;;;;5056318;28;20021;-87
2022/09/24 03:38:09;;;;;;;13.63;7.55;;;;;;;;;;5058877;28;20033;-87
2022/09/24 03:40:35;;;;;;;10.40;6.40;;;;;;;;;;5060775;28;20035;-83
2022/09/24 03:43:00;;;;;;;10.82;6.72;;;;;;;;;;5081520;28;20317;-82
2022/09/24 03:45:25;;;;;;;14.15;7.25;;;;;;;;;;5070910;28;20025;-84
2022/09/24 03:47:51;;;;;;;12.38;7.63;;;;;;;;;;5070537;28;20029;-87
2022/09/24 03:50:16;;;;;;;9.77;6.18;;;;;;;;;;5054184;28;20025;-87
2022/09/24 03:52:42;;;;;;;9.40;6.45;;;;;;;;;;5054451;28;20463;-89
2022/09/24 03:55:08;;;;;;;11.73;6.68;;;;;;;;;;5036746;28;20031;-87
2022/09/24 03:57:33;;;;;;;15.93;6.63;;;;;;;;;;5036569;28;20017;-86
2022/09/24 03:59:59;;;;;;;10.00;6.43;;;;;;;;;;5038201;28;20028;-87
2022/09/24 04:02:24;;;;;;;11.05;6.47;;;;;;;;;;5062239;28;20073;-87
2022/09/24 04:04:50;;;;;;;8.30;5.78;;;;;;;;;;5036565;28;20048;-87
2022/09/24 04:07:16;;;;;;;16.75;7.22;;;;;;;;;;5050595;28;20021;-86
2022/09/24 04:09:41;;;;;;;14.90;6.85;;;;;;;;;;5039963;28;20032;-85
2022/09/24 04:12:06;;;;;;;11.55;6.03;;;;;;;;;;5032932;28;20486;-87
2022/09/24 04:14:32;;;;;;;13.68;7.57;;;;;;;;;;5051192;28;20021;-85
2022/09/24 04:16:58;;;;;;;12.27;6.82;;;;;;;;;;5053057;28;20031;-88
2022/09/24 04:19:24;;;;;;;12.00;6.95;;;;;;;;;;5052881;28;20067;-87
2022/09/24 04:21:49;;;;;;;12.70;6.90;;;;;;;;;;5051717;28;20128;-87
2022/09/24 04:24:14;;;;;;;11.38;7.25;;;;;;;;;;5035673;28;20474;-85
2022/09/24 04:26:40;;;;;;;13.60;6.47;;;;;;;;;;5038620;28;20048;-86
2022/09/24 04:29:05;;;;;;;15.18;6.28;;;;;;;;;;5055937;28;20020;-86
2022/09/24 04:31:32;;;;;;;11.98;6.45;;;;;;;;;;5056429;28;20074;-87
2022/09/24 04:33:58;;;;;;;13.38;6.50;;;;;;;;;;5051046;28;20048;-85
2022/09/24 04:36:23;;;;;;;10.73;6.30;;;;;;;;;;5054556;28;20394;-85
2022/09/24 04:38:49;;;;;;;8.57;5.82;;;;;;;;;;5029825;28;20025;-86
2022/09/24 04:41:16;;;;;;;13.18;5.82;;;;;;;;;;5054422;28;20048;-88
2022/09/24 04:43:41;;;;;;;8.65;6.30;;;;;;;;;;5051301;28;20094;-88
2022/09/24 04:46:08;;;;;;;11.60;6.88;;;;;;;;;;5046380;28;20029;-87
2022/09/24 04:48:37;;;;;;;12.93;6.88;;;;;;;;;;5034108;28;20029;-85
2022/09/24 04:51:06;;;;;;;9.50;6.47;;;;;;;;;;5033354;28;20454;-87
2022/09/24 04:53:36;;;;;;;15.68;7.28;;;;;;;;;;5036687;28;20092;-88
2022/09/24 04:56:02;;;;;;;12.73;6.90;;;;;;;;;;5050628;28;20032;-88
2022/09/24 04:58:28;;;;;;;11.95;6.82;;;;;;;;;;5052844;28;20060;-88
2022/09/24 05:00:54;;;;;;;8.27;6.65;;;;;;;;;;5052702;28;20029;-88
2022/09/24 05:03:22;;;;;;;11.65;6.63;;;;;;;;;;5042077;28;20032;-86
2022/09/24 05:05:50;;;;;;;13.10;7.22;;;;;;;;;;5058953;28;20029;-87
2022/09/24 05:08:16;;;;;;;10.88;6.45;;;;;;;;;;5054533;28;20020;-87
2022/09/24 05:10:42;;;;;;;14.00;6.95;;;;;;;;;;5047996;28;20025;-86
2022/09/24 05:13:07;;;;;;;9.90;6.50;;;;;;;;;;5039530;28;20381;-86
2022/09/24 05:15:32;;;;;;;9.25;6.65;;;;;;;;;;5056738;28;20459;-88
2022/09/24 05:17:58;;;;;;;9.93;6.53;;;;;;;;;;5057760;28;20104;-87
2022/09/24 05:20:24;;;;;;;12.35;6.63;;;;;;;;;;5040121;28;20029;-87
2022/09/24 05:22:50;;;;;;;9.52;6.90;;;;;;;;;;5038064;28;20109;-86
2022/09/24 05:25:17;;;;;;;12.40;6.57;;;;;;;;;;5037808;28;20049;-87
2022/09/24 05:27:45;;;;;;;10.60;7.32;;;;;;;;;;5055633;28;20024;-87
2022/09/24 05:30:11;;;;;;;11.10;6.57;;;;;;;;;;5037460;28;20028;-86
2022/09/24 05:32:36;;;;;;;12.82;6.95;;;;;;;;;;5054285;28;20467;-87
2022/09/24 05:35:02;;;;;;;8.50;6.07;;;;;;;;;;5055957;28;20074;-86
2022/09/24 05:37:27;;;;;;;15.38;7.15;;;;;;;;;;5037850;28;20119;-87
2022/09/24 05:39:53;;;;;;;8.70;6.45;;;;;;;;;;5036212;28;20029;-86
2022/09/24 05:42:19;;;;;;;9.50;6.40;;;;;;;;;;5055414;28;20386;-86
2022/09/24 05:44:45;;;;;;;9.55;6.47;;;;;;;;;;5051863;28;20040;-86
2022/09/24 05:47:10;;;;;;;8.95;6.65;;;;;;;;;;5056055;28;20075;-89
2022/09/24 05:49:36;;;;;;;12.60;6.57;;;;;;;;;;5055880;28;20036;-87
2022/09/24 05:52:02;;;;;;;10.80;6.22;;;;;;;;;;5037095;28;20074;-88
2022/09/24 05:54:27;;;;;;;10.77;6.78;;;;;;;;;;5055167;28;20048;-87
2022/09/24 05:56:52;;;;;;;9.65;5.50;;;;;;;;;;5055796;28;20052;-88
2022/09/24 05:59:18;;;;;;;8.82;5.78;;;;;;;;;;5038827;28;20060;-88
2022/09/24 06:01:43;;;;;;;9.68;6.40;;;;;;;;;;5055089;28;20028;-88
2022/09/24 06:04:10;;;;;;;9.00;6.05;;;;;;;;;;5038244;28;20021;-87
2022/09/24 06:06:36;;;;;;;9.45;5.60;;;;;;;;;;5055848;28;20537;-85
2022/09/24 06:09:02;;;;;;;11.70;6.35;;;;;;;;;;5055722;28;20104;-87
2022/09/24 06:11:33;;;;;;;11.25;6.60;;;;;;;;;;5054507;28;20088;-86
2022/09/24 06:14:01;;;;;;;21.33;7.15;;;;;;;;;;5036697;28;20124;-86
2022/09/24 06:16:27;;;;;;;17.63;6.57;;;;;;;;;;5037216;28;20082;-86
2022/09/24 06:18:52;;;;;;;11.85;6.10;;;;;;;;;;5055195;28;20025;-85
2022/09/24 06:21:18;;;;;;;13.38;6.65;;;;;;;;;;5038360;28;20021;-86
2022/09/24 06:23:46;;;;;;;9.75;6.13;;;;;;;;;;5055708;28;20052;-86
2022/09/24 06:26:13;;;;;;;9.85;6.60;;;;;;;;;;5038002;28;20041;-86
2022/09/24 06:28:39;;;;;;;9.45;6.57;;;;;;;;;;5035761;28;20107;-86
2022/09/24 06:31:06;;;;;;;11.35;7.18;;;;;;;;;;5030073;28;20032;-85
2022/09/24 06:33:31;;;;;;;13.70;7.20;;;;;;;;;;5033253;28;20056;-86
2022/09/24 06:36:02;;;;;;;9.88;6.43;;;;;;;;;;5048703;28;20071;-86
2022/09/24 06:38:27;;;;;;;8.48;6.30;;;;;;;;;;5033136;28;20471;-87
2022/09/24 06:40:58;;;;;;;12.23;6.70;;;;;;;;;;5037967;28;20021;-85
2022/09/24 06:43:23;;;;;;;10.68;6.32;;;;;;;;;;5056833;28;20055;-87
2022/09/24 06:45:49;;;;;;;9.57;6.07;;;;;;;;;;5057295;28;20018;-86
2022/09/24 06:48:14;;;;;;;8.25;6.43;;;;;;;;;;5058099;28;20021;-86
2022/09/24 06:50:42;;;;;;;9.35;6.88;;;;;;;;;;5038825;28;20474;-86
2022/09/24 06:53:09;;;;;;;12.02;6.90;;;;;;;;;;5057375;28;20048;-86
2022/09/24 06:55:35;;;;;;;10.40;5.80;;;;;;;;;;5037689;28;20055;-86
2022/09/24 06:58:06;;;;;;;9.00;6.25;;;;;;;;;;5058023;28;20028;-87
2022/09/24 07:00:32;;;;;;;15.23;6.60;;;;;;;;;;5039806;28;20040;-87
2022/09/24 07:02:57;;;;;;;12.15;5.65;;;;;;;;;;5062575;28;20025;-87
2022/09/24 07:05:26;;;;;;;10.25;6.15;;;;;;;;;;5057476;28;20052;-88
2022/09/24 07:07:51;;;;;;;10.25;6.28;;;;;;;;;;5057061;28;20052;-88
2022/09/24 07:10:17;;;;;;;11.68;6.78;;;;;;;;;;5054248;28;20032;-88
2022/09/24 07:12:42;;;;;;;9.43;6.03;;;;;;;;;;5045386;28;20024;-87
2022/09/24 07:15:09;;;;;;;9.63;6.43;;;;;;;;;;5057776;28;20021;-87
2022/09/24 07:17:34;;;;;;;11.52;6.28;;;;;;;;;;5055691;28;20025;-86
2022/09/24 07:20:00;;;;;;;10.40;6.28;;;;;;;;;;5055620;28;20039;-86
2022/09/24 07:22:26;;;;;;;8.38;5.57;;;;;;;;;;5038493;28;20013;-86
2022/09/24 07:24:52;;;;;;;12.15;5.85;;;;;;;;;;5036503;28;20429;-86
2022/09/24 07:27:20;;;;;;;8.50;5.15;;;;;;;;;;5056884;28;20024;-87
2022/09/24 07:29:48;;;;;;;16.77;5.93;;;;;;;;;;5056210;28;20093;-86
2022/09/24 07:32:17;;;;;;;7.70;5.47;;;;;;;;;;5037898;28;20471;-87
2022/09/24 07:34:44;;;;;;;10.00;6.10;;;;;;;;;;5039814;28;20028;-86
2022/09/24 07:37:09;;;;;;;9.70;6.18;;;;;;;;;;5057844;28;20104;-87
2022/09/24 07:39:34;;;;;;;6.68;5.50;;;;;;;;;;5040702;28;20045;-87
2022/09/24 07:42:01;;;;;;;8.15;5.78;;;;;;;;;;5038675;28;20051;-87
2022/09/24 07:44:27;;;;;;;10.90;6.25;;;;;;;;;;5055650;28;20049;-87
2022/09/24 07:46:54;;;;;;;12.68;5.88;;;;;;;;;;5040251;28;20573;-86
2022/09/24 07:49:20;;;;;;;9.18;5.10;;;;;;;;;;5056372;28;20040;-86
2022/09/24 07:51:45;;;;;;;10.68;5.63;;;;;;;;;;5049464;28;20021;-87
2022/09/24 07:54:10;;;;;;;8.00;5.15;;;;;;;;;;5045446;28;20462;-86
2022/09/24 07:59:27;;;;;;;8.98;4.60;;;;;;;;;;5056075;28;20058;-87
2022/09/24 08:02:10;;;;;;;7.55;4.40;;;;;;;;;;5033291;28;20056;-87
2022/09/24 08:04:57;;;;;;;6.25;4.40;;;;;;;;;;5052427;28;20474;-87
2022/09/24 08:07:46;;;;;;;5.05;4.13;;;;;;;;;;5049882;28;20032;-86
2022/09/24 08:10:27;;;;;;;5.35;4.10;;;;;;;;;;5015261;28;20044;-87
2022/09/24 08:12:52;;;;;;;6.75;4.00;;;;;;;;;;5057023;28;20064;-87
2022/09/24 08:15:18;;;;;;;9.93;4.30;;;;;;;;;;5039383;28;20033;-87
2022/09/24 08:17:52;;;;;;;4.80;3.40;;;;;;;;;;5056757;28;20471;-86
2022/09/24 08:20:22;;;;;;;5.35;3.88;;;;;;;;;;5052065;28;20053;-87
2022/09/24 08:22:47;;;;;;;5.50;3.53;;;;;;;;;;5054768;28;20024;-88
2022/09/24 08:25:15;;;;;;;4.32;3.35;;;;;;;;;;5055546;28;20041;-87
2022/09/24 08:27:40;;;;;;;7.20;3.90;;;;;;;;;;5038885;28;20040;-87
2022/09/24 08:30:06;;;;;;;7.03;3.63;;;;;;;;;;5053953;28;20021;-87
2022/09/24 08:32:32;;;;;;;4.75;3.83;;;;;;;;;;5054720;28;20501;-87
2022/09/24 08:34:58;;;;;;;6.00;3.67;;;;;;;;;;5037345;28;20050;-86
2022/09/24 08:37:23;;;;;;;5.53;3.78;;;;;;;;;;5060800;28;20063;-86
2022/09/24 08:39:49;;;;;;;6.65;3.83;;;;;;;;;;5042132;28;20025;-87
2022/09/24 08:42:31;;;;;;;5.60;3.65;;;;;;;;;;5043730;28;20028;-87
2022/09/24 08:47:47;;;;;;;7.03;3.90;;;;;;;;;;5078381;28;20032;-86
2022/09/24 08:50:25;;;;;;;11.32;3.72;;;;;;;;;;5080983;28;20031;-87
2022/09/24 08:53:13;;;;;;;5.32;3.55;;;;;;;;;;5081021;28;20025;-86
2022/09/24 08:55:53;;;;;;;8.43;4.53;;;;;;;;;;5072802;28;20028;-87
2022/09/24 08:58:55;;;;;;;8.50;4.25;;;;;;;;;;5050930;28;20402;-86
2022/09/24 09:02:04;;;;;;;6.93;4.15;;;;;;;;;;5046110;28;20849;-86
2022/09/24 09:05:08;;;;;;;5.70;3.65;;;;;;;;;;5056436;28;20025;-86
2022/09/24 09:07:50;;;;;;;4.75;3.67;;;;;;;;;;5068695;28;20055;-86
2022/09/24 09:10:30;;;;;;;6.15;3.17;;;;;;;;;;5072753;28;20024;-87
2022/09/24 09:13:27;;;;;;;4.50;3.70;;;;;;;;;;5063734;28;20017;-87
2022/09/24 09:16:10;;;;;;;6.50;3.83;;;;;;;;;;5057952;28;20033;-87
2022/09/24 09:18:40;;;;;;;4.32;3.30;;;;;;;;;;5060302;28;20025;-87
2022/09/24 09:21:15;;;;;;;5.45;3.40;;;;;;;;;;5026091;28;20064;-87
2022/09/24 09:23:47;;;;;;;5.18;3.63;;;;;;;;;;5056983;28;20025;-87
2022/09/24 09:26:13;;;;;;;5.45;3.42;;;;;;;;;;5059358;28;20163;-87
2022/09/24 09:28:39;;;;;;;6.80;3.28;;;;;;;;;;5057856;28;20029;-87
2022/09/24 09:31:26;;;;;;;3.20;2.83;;;;;;;;;;5040263;28;20021;-87
2022/09/24 09:34:28;;;;;;;6.10;4.00;;;;;;;;;;5041458;28;20055;-87
2022/09/24 09:37:15;;;;;;;6.03;3.58;;;;;;;;;;5042235;28;20047;-86
2022/09/24 09:39:59;;;;;;;5.22;3.22;;;;;;;;;;5062856;28;20052;-86
2022/09/24 09:42:30;;;;;;;6.25;3.40;;;;;;;;;;5060097;28;20020;-87
2022/09/24 09:44:59;;;;;;;4.85;3.83;;;;;;;;;;5044522;28;20017;-86
2022/09/24 09:47:36;;;;;;;5.97;3.65;;;;;;;;;;5068297;28;20024;-87
2022/09/24 09:50:34;;;;;;;9.05;3.35;;;;;;;;;;5039131;28;20095;-87
2022/09/24 09:53:01;;;;;;;5.57;3.00;;;;;;;;;;5055200;28;20509;-86
2022/09/24 09:55:34;;;;;;;3.17;2.72;;;;;;;;;;5037253;28;20059;-87
2022/09/24 09:58:25;;;;;;;3.50;2.92;;;;;;;;;;5039655;28;20509;-86
2022/09/24 10:00:51;;;;;;;3.83;2.80;;;;;;;;;;5032178;28;20029;-87
2022/09/24 10:03:48;;;;;;;3.60;2.70;;;;;;;;;;5051940;28;20017;-86
2022/09/24 10:06:27;;;;;;;4.93;2.83;;;;;;;;;;5038503;28;20067;-87
2022/09/24 10:08:53;;;;;;;6.43;2.55;;;;;;;;;;5039008;28;20107;-87
2022/09/24 10:11:23;;;;;;;3.03;2.42;;;;;;;;;;5050301;28;20060;-86
2022/09/24 10:14:03;;;;;;;3.53;2.28;;;;;;;;;;5038718;28;20386;-87
2022/09/24 10:16:29;;;;;;;4.32;2.30;;;;;;;;;;5051838;28;20425;-87
2022/09/24 10:18:54;;;;;;;3.63;2.10;;;;;;;;;;5039583;28;20033;-86
2022/09/24 10:21:33;;;;;;;2.90;1.88;;;;;;;;;;5037385;28;20024;-87
2022/09/24 10:24:04;;;;;;;3.55;1.95;;;;;;;;;;5056306;28;20119;-87
2022/09/24 10:26:35;;;;;;;3.90;2.30;;;;;;;;;;5041568;28;20021;-87
2022/09/24 10:31:44;;;;;;;4.55;2.05;;;;;;;;;;5044815;28;20035;-87
2022/09/24 10:34:26;;;;;;;4.15;2.05;;;;;;;;;;5055774;28;20119;-86
2022/09/24 10:36:57;;;;;;;4.33;2.20;;;;;;;;;;5036516;28;20028;-86
2022/09/24 10:39:22;;;;;;;2.58;2.00;;;;;;;;;;5056244;28;20104;-87
2022/09/24 10:41:50;;;;;;;5.03;2.08;;;;;;;;;;5054284;28;20056;-88
2022/09/24 10:44:17;;;;;;;3.25;2.15;;;;;;;;;;5056546;28;20017;-87
2022/09/24 10:46:48;;;;;;;2.17;1.98;;;;;;;;;;5038318;28;20033;-87
2022/09/24 10:49:36;;;;;;;1.67;1.58;;;;;;;;;;5056597;28;20017;-88
2022/09/24 10:52:10;;;;;;;4.47;2.05;;;;;;;;;;5049786;28;20021;-87
2022/09/24 10:54:48;;;;;;;2.58;2.10;;;;;;;;;;5058629;28;20051;-87
2022/09/24 10:57:32;;;;;;;3.50;2.10;;;;;;;;;;5056035;28;20509;-87
2022/09/24 11:00:13;;;;;;;2.70;2.00;;;;;;;;;;5055508;28;20100;-87
2022/09/24 11:02:41;;;;;;;6.07;2.60;;;;;;;;;;5055950;28;20540;-86
2022/09/24 11:05:14;;;;;;;2.53;1.92;;;;;;;;;;5037647;28;20094;-87
2022/09/24 11:08:07;;;;;;;6.85;2.30;;;;;;;;;;5037131;28;20383;-87
2022/09/24 11:10:50;;;;;;;2.33;1.70;;;;;;;;;;5053681;28;20160;-87
2022/09/24 11:13:54;;;;;;;2.88;1.92;;;;;;;;;;5040086;28;20513;-87
2022/09/24 11:16:48;;;;;;;4.55;2.00;;;;;;;;;;5055036;28;20051;-86
2022/09/24 11:19:59;;;;;;;3.05;1.65;;;;;;;;;;5054864;28;20030;-87
2022/09/24 11:23:02;;;;;;;1.70;1.60;;;;;;;;;;5056939;28;20025;-87
2022/09/24 11:25:49;;;;;;;2.92;1.50;;;;;;;;;;5051498;28;20285;-86
2022/09/24 11:28:22;;;;;;;3.83;1.65;;;;;;;;;;5043015;28;20158;-87
2022/09/24 11:31:42;;;;;;;2.38;1.85;;;;;;;;;;5053711;28;20491;-87
2022/09/24 11:34:36;;;;;;;2.33;1.70;;;;;;;;;;4937958;29;20067;-87
2022/09/24 11:37:38;;;;;;;2.47;1.67;;;;;;;;;;5054356;28;20025;-87
2022/09/24 11:40:34;;;;;;;4.33;1.87;;;;;;;;;;5053558;28;20139;-87
2022/09/24 11:43:33;;;;;;;2.83;1.70;;;;;;;;;;5066049;28;20032;-86
2022/09/24 11:46:09;;;;;;;6.53;1.75;;;;;;;;;;5029739;28;20033;-87
2022/09/24 11:48:34;;;;;;;2.72;1.77;;;;;;;;;;5016704;28;20048;-86
2022/09/24 11:51:32;;;;;;;2.50;2.20;;;;;;;;;;5033624;28;20053;-86
2022/09/24 11:54:06;;;;;;;1.95;1.73;;;;;;;;;;4994485;28;20076;-86
2022/09/24 11:56:35;;;;;;;4.70;2.00;;;;;;;;;;5033980;28;20028;-87
2022/09/24 11:59:13;;;;;;;3.35;1.80;;;;;;;;;;5037186;28;20029;-86
2022/09/24 12:01:46;;;;;;;2.22;1.73;;;;;;;;;;5052967;28;20013;-86
2022/09/24 12:04:20;;;;;;;1.90;1.73;;;;;;;;;;5016209;28;20056;-86
2022/09/24 12:06:53;;;;;;;2.38;1.67;;;;;;;;;;5033438;28;20029;-85
2022/09/24 12:09:46;;;;;;;4.07;2.03;;;;;;;;;;5016280;28;20021;-86
2022/09/24 12:12:20;;;;;;;1.83;1.70;;;;;;;;;;5042698;28;20053;-86
2022/09/24 12:15:00;;;;;;;2.60;1.60;;;;;;;;;;5050545;28;20035;-86
2022/09/24 12:17:41;;;;;;;2.00;1.80;;;;;;;;;;5053005;28;20021;-87
2022/09/24 12:20:25;;;;;;;1.95;1.73;;;;;;;;;;5053395;28;20461;-87
2022/09/24 12:22:58;;;;;;;7.15;2.30;;;;;;;;;;5054987;28;20021;-87
2022/09/24 12:25:28;;;;;;;2.00;1.80;;;;;;;;;;5053653;28;20094;-87
2022/09/24 12:27:54;;;;;;;1.83;1.73;;;;;;;;;;5055294;28;20029;-87
2022/09/24 12:33:22;;;;;;;4.35;2.10;;;;;;;;;;5055178;28;20052;-87
2022/09/24 12:36:26;;;;;;;2.55;2.17;;;;;;;;;;5053661;28;20017;-88
2022/09/24 12:38:55;;;;;;;3.97;2.40;;;;;;;;;;5054294;28;20053;-87
2022/09/24 12:41:24;;;;;;;3.83;2.15;;;;;;;;;;5053736;28;20025;-87
2022/09/24 12:44:11;;;;;;;2.95;1.90;;;;;;;;;;5045163;28;20039;-88
2022/09/24 12:46:54;;;;;;;6.22;2.08;;;;;;;;;;5048604;28;20475;-87
2022/09/24 12:49:28;;;;;;;6.82;3.65;;;;;;;;;;5047785;28;20012;-87
2022/09/24 12:52:42;;;;;;;6.25;3.35;;;;;;;;;;5053910;28;20086;-86
2022/09/24 12:55:44;;;;;;;4.90;3.20;;;;;;;;;;5039278;28;20037;-86
2022/09/24 12:58:29;;;;;;;5.55;3.13;;;;;;;;;;5042234;28;20040;-87
2022/09/24 13:01:12;;;;;;;8.15;2.78;;;;;;;;;;5044042;28;20090;-88
2022/09/24 13:03:40;;;;;;;2.95;2.40;;;;;;;;;;5051665;28;20021;-87
2022/09/24 13:06:22;;;;;;;4.30;2.75;;;;;;;;;;5055150;28;20056;-87
2022/09/24 13:08:49;;;;;;;3.35;2.17;;;;;;;;;;5053676;28;20047;-86
2022/09/24 13:11:31;;;;;;;5.55;3.25;;;;;;;;;;5052341;28;20027;-86
2022/09/24 13:14:12;;;;;;;4.22;3.30;;;;;;;;;;5047466;28;20021;-88
2022/09/24 13:16:39;;;;;;;3.95;3.13;;;;;;;;;;5056944;28;20375;-87
2022/09/24 13:19:24;;;;;;;4.15;2.95;;;;;;;;;;5039090;28;20020;-88
2022/09/24 13:21:59;;;;;;;4.90;3.45;;;;;;;;;;5038065;28;20067;-87
2022/09/24 13:24:31;;;;;;;5.07;3.35;;;;;;;;;;5041410;28;20070;-87
2022/09/24 13:27:29;;;;;;;5.38;3.83;;;;;;;;;;5059100;28;20414;-87
2022/09/24 13:30:29;;;;;;;6.45;4.05;;;;;;;;;;5004122;28;20471;-87
2022/09/24 13:33:20;;;;;;;6.80;4.60;;;;;;;;;;5030804;28;20094;-86
2022/09/24 13:36:11;;;;;;;8.93;5.30;;;;;;;;;;5059151;28;20024;-86
2022/09/24 13:39:00;;;;;;;8.40;6.57;;;;;;;;;;5071011;28;20052;-86
2022/09/24 13:41:44;;;;;;;14.15;7.50;;;;;;;;;;5052874;28;20031;-87
2022/09/24 13:44:30;;;;;;;14.43;7.93;;;;;;;;;;5044164;28;20506;-86
2022/09/24 13:47:00;;;;;;;9.65;7.03;;;;;;;;;;5059909;28;20086;-88
2022/09/24 13:49:28;;;;;;;15.77;7.50;;;;;;;;;;5063021;28;20120;-87
2022/09/24 13:52:10;;;;;;;12.15;6.47;;;;;;;;;;5049438;28;20032;-88
2022/09/24 13:54:42;;;;;;;9.10;5.95;;;;;;;;;;5040473;28;20079;-87
2022/09/24 13:57:23;;;;;;;10.77;5.20;;;;;;;;;;5068459;28;20084;-86
2022/09/24 13:59:48;;;;;;;6.38;4.57;;;;;;;;;;5061073;28;20029;-87
2022/09/24 14:02:24;;;;;;;9.50;5.00;;;;;;;;;;5056577;28;20032;-87
2022/09/24 14:04:57;;;;;;;8.73;5.03;;;;;;;;;;5059220;28;20017;-86
2022/09/24 14:07:23;;;;;;;7.20;4.43;;;;;;;;;;5046984;28;20482;-87
2022/09/24 14:09:50;;;;;;;7.60;2.90;;;;;;;;;;5048327;28;20064;-88
2022/09/24 14:12:21;;;;;;;5.10;3.45;;;;;;;;;;5043197;28;20035;-88
2022/09/24 14:14:52;;;;;;;4.50;3.00;;;;;;;;;;5061847;28;20025;-88
2022/09/24 14:17:18;;;;;;;5.10;3.38;;;;;;;;;;5060739;28;20046;-87
2022/09/24 14:19:43;;;;;;;5.50;3.63;;;;;;;;;;5059229;28;20119;-87
2022/09/24 14:22:19;;;;;;;8.25;4.80;;;;;;;;;;5058798;28;20025;-87
2022/09/24 14:25:05;;;;;;;4.38;3.40;;;;;;;;;;5042164;28;20031;-87
2022/09/24 14:27:53;;;;;;;6.47;4.05;;;;;;;;;;5058917;28;20047;-87
2022/09/24 14:30:59;;;;;;;6.13;3.88;;;;;;;;;;5067524;28;20048;-87
2022/09/24 14:34:09;;;;;;;5.25;3.80;;;;;;;;;;5045751;28;20481;-87
2022/09/24 14:40:03;;;;;;;5.68;3.30;;;;;;;;;;5053101;28;20036;-88
2022/09/24 14:43:04;;;;;;;6.38;3.58;;;;;;;;;;5068298;28;20039;-87
2022/09/24 14:49:45;;;;;;;6.35;3.38;;;;;;;;;;5078851;28;20028;-88
2022/09/24 14:55:44;;;;;;;4.63;2.55;;;;;;;;;;4959420;29;20131;-88
2022/09/24 15:02:16;;;;;;;6.75;2.97;;;;;;;;;;4959989;28;20042;-87
2022/09/24 15:04:54;;;;;;;6.03;3.38;;;;;;;;;;4940203;28;20054;-87
2022/09/24 15:07:24;;;;;;;4.70;3.22;;;;;;;;;;4956819;28;20487;-87
2022/09/24 15:10:01;;;;;;;6.25;4.10;;;;;;;;;;5056741;28;20028;-87
2022/09/24 15:12:32;;;;;;;4.95;3.53;;;;;;;;;;5057173;28;20016;-88
2022/09/24 15:15:17;;;;;;;4.18;3.13;;;;;;;;;;5059702;28;20060;-87
2022/09/24 15:17:43;;;;;;;4.32;3.08;;;;;;;;;;5057754;28;20029;-87
2022/09/24 15:20:10;;;;;;;5.90;3.53;;;;;;;;;;5058933;28;20031;-88
2022/09/24 15:22:40;;;;;;;4.35;3.45;;;;;;;;;;5060350;28;20024;-87
2022/09/24 15:25:06;;;;;;;5.60;3.67;;;;;;;;;;5068384;28;20028;-88
2022/09/24 15:27:36;;;;;;;8.07;3.75;;;;;;;;;;5063109;28;20101;-87
2022/09/24 15:30:03;;;;;;;7.63;4.18;;;;;;;;;;5076114;28;20028;-88
2022/09/24 15:32:32;;;;;;;4.82;3.60;;;;;;;;;;5057345;28;20044;-87
2022/09/24 15:34:58;;;;;;;5.05;3.30;;;;;;;;;;5075646;28;20033;-88
2022/09/24 15:37:27;;;;;;;3.95;3.30;;;;;;;;;;5075992;28;20017;-87
2022/09/24 15:39:57;;;;;;;4.22;2.75;;;;;;;;;;5058070;28;20021;-87
2022/09/24 15:42:24;;;;;;;4.93;3.30;;;;;;;;;;5075112;28;20009;-87
2022/09/24 15:44:50;;;;;;;3.92;3.08;;;;;;;;;;5057858;28;20017;-88